createdAt,value
2018-06-14T00:01:44.926Z,14.70
2018-06-14T00:04:13.515Z,14.70
2018-06-14T00:06:42.089Z,14.70
2018-06-14T00:09:11.322Z,14.70
2018-06-14T00:11:39.979Z,14.70
2018-06-14T00:14:08.636Z,14.70
2018-06-14T00:19:05.827Z,14.60
2018-06-14T00:21:34.385Z,14.60
2018-06-14T00:24:02.997Z,14.60
2018-06-14T00:26:31.649Z,14.60
2018-06-14T00:29:00.298Z,14.60
2018-06-14T00:31:28.948Z,14.60
2018-06-14T00:33:57.544Z,14.60
2018-06-14T00:36:26.141Z,14.50
2018-06-14T00:38:54.715Z,14.50
2018-06-14T00:41:23.628Z,14.50
2018-06-14T00:43:52.786Z,14.50
2018-06-14T00:46:21.386Z,14.50
2018-06-14T00:48:49.960Z,14.50
2018-06-14T00:51:18.487Z,14.50
2018-06-14T00:53:47.106Z,14.50
2018-06-14T00:56:15.805Z,14.40
2018-06-14T00:58:44.707Z,14.40
2018-06-14T01:01:13.398Z,14.40
2018-06-14T01:03:41.995Z,14.40
2018-06-14T01:06:10.554Z,14.40
2018-06-14T01:08:39.124Z,14.40
2018-06-14T01:11:07.759Z,14.40
2018-06-14T01:13:36.952Z,14.40
2018-06-14T01:16:05.519Z,14.40
2018-06-14T01:18:34.160Z,14.30
2018-06-14T01:23:55.800Z,14.30
2018-06-14T01:26:24.390Z,14.30
2018-06-14T01:28:53.187Z,14.30
2018-06-14T01:31:21.768Z,14.30
2018-06-14T01:33:50.378Z,14.30
2018-06-14T01:36:18.989Z,14.30
2018-06-14T01:38:47.601Z,14.30
2018-06-14T01:41:16.292Z,14.30
2018-06-14T01:43:44.894Z,14.20
2018-06-14T01:46:13.614Z,14.30
2018-06-14T01:48:43.099Z,14.20
2018-06-14T01:51:11.675Z,14.20
2018-06-14T01:53:40.312Z,14.20
2018-06-14T01:56:08.842Z,14.20
2018-06-14T02:01:28.525Z,14.20
2018-06-14T02:03:57.236Z,14.20
2018-06-14T02:06:25.797Z,14.20
2018-06-14T02:08:54.362Z,14.20
2018-06-14T02:11:23.276Z,14.10
2018-06-14T02:13:51.808Z,14.10
2018-06-14T02:16:20.443Z,14.10
2018-06-14T02:18:49.064Z,14.10
2018-06-14T02:21:17.886Z,14.10
2018-06-14T02:23:46.471Z,14.00
2018-06-14T02:26:15.131Z,14.00
2018-06-14T02:28:43.710Z,14.00
2018-06-14T02:31:12.862Z,14.00
2018-06-14T02:33:41.466Z,13.90
2018-06-14T02:36:10.100Z,13.80
2018-06-14T02:38:38.664Z,13.70
2018-06-14T02:41:07.268Z,13.70
2018-06-14T02:43:35.851Z,13.60
2018-06-14T02:46:05.002Z,13.50
2018-06-14T02:48:33.635Z,13.40
2018-06-14T02:51:02.222Z,13.40
2018-06-14T02:53:30.763Z,13.30
2018-06-14T02:55:59.394Z,13.20
2018-06-14T02:58:27.991Z,13.20
2018-06-14T03:00:56.626Z,13.10
2018-06-14T03:03:25.537Z,13.00
2018-06-14T03:05:55.068Z,12.90
2018-06-14T03:08:23.727Z,12.90
2018-06-14T03:10:52.341Z,12.80
2018-06-14T03:13:20.911Z,12.80
2018-06-14T03:15:49.444Z,12.70
2018-06-14T03:18:18.044Z,12.70
2018-06-14T03:20:46.659Z,12.60
2018-06-14T03:23:16.148Z,12.50
2018-06-14T03:25:45.376Z,12.40
2018-06-14T03:28:14.402Z,12.40
2018-06-14T03:30:43.077Z,12.30
2018-06-14T03:33:11.847Z,12.40
2018-06-14T03:35:41.652Z,12.40
2018-06-14T03:38:10.237Z,12.40
2018-06-14T03:40:38.841Z,12.40
2018-06-14T03:43:07.443Z,12.30
2018-06-14T03:45:35.989Z,12.30
2018-06-14T03:48:05.280Z,12.40
2018-06-14T03:50:33.858Z,12.40
2018-06-14T03:53:02.507Z,12.40
2018-06-14T03:55:31.239Z,12.50
2018-06-14T03:57:59.854Z,12.60
2018-06-14T04:00:28.371Z,12.60
2018-06-14T04:02:56.995Z,12.70
2018-06-14T04:05:25.551Z,12.70
2018-06-14T04:07:54.137Z,12.80
2018-06-14T04:10:22.793Z,12.90
2018-06-14T04:12:51.348Z,12.90
2018-06-14T04:15:19.893Z,13.00
2018-06-14T04:18:00.864Z,13.10
2018-06-14T04:20:30.686Z,13.10
2018-06-14T04:22:59.400Z,13.20
2018-06-14T04:25:28.003Z,13.30
2018-06-14T04:27:56.601Z,13.30
2018-06-14T04:30:26.901Z,13.40
2018-06-14T04:32:55.511Z,13.50
2018-06-14T04:35:24.510Z,13.50
2018-06-14T04:37:55.706Z,13.50
2018-06-14T04:40:24.273Z,13.60
2018-06-14T04:42:53.930Z,13.70
2018-06-14T04:45:22.856Z,13.70
2018-06-14T04:47:51.458Z,13.70
2018-06-14T04:50:20.354Z,13.80
2018-06-14T04:52:49.274Z,13.80
2018-06-14T04:55:17.848Z,13.80
2018-06-14T04:57:46.455Z,13.90
2018-06-14T05:00:15.105Z,13.90
2018-06-14T05:02:43.743Z,13.90
2018-06-14T05:05:12.312Z,14.00
2018-06-14T05:07:40.880Z,14.00
2018-06-14T05:10:09.539Z,14.10
2018-06-14T05:12:38.141Z,14.10
2018-06-14T05:15:06.726Z,14.10
2018-06-14T05:17:35.334Z,14.20
2018-06-14T05:20:04.020Z,14.20
2018-06-14T05:22:32.772Z,14.30
2018-06-14T05:25:01.387Z,14.30
2018-06-14T05:27:30.533Z,14.40
2018-06-14T05:29:59.437Z,14.40
2018-06-14T05:32:28.372Z,14.50
2018-06-14T05:34:57.303Z,14.70
2018-06-14T05:39:54.601Z,14.80
2018-06-14T05:42:23.471Z,14.90
2018-06-14T05:44:52.017Z,15.00
2018-06-14T05:47:20.625Z,15.10
2018-06-14T05:49:49.247Z,15.20
2018-06-14T05:52:17.836Z,15.20
2018-06-14T05:54:46.477Z,15.40
2018-06-14T05:57:15.153Z,15.50
2018-06-14T05:59:43.744Z,15.50
2018-06-14T06:02:12.908Z,15.60
2018-06-14T06:04:41.553Z,15.60
2018-06-14T06:07:10.154Z,15.70
2018-06-14T06:09:40.610Z,15.70
2018-06-14T06:12:09.207Z,15.80
2018-06-14T06:14:37.932Z,15.80
2018-06-14T06:17:06.520Z,16.00
2018-06-14T06:19:35.764Z,16.10
2018-06-14T06:22:04.364Z,16.30
2018-06-14T06:24:33.332Z,16.30
2018-06-14T06:27:02.041Z,16.40
2018-06-14T06:29:30.663Z,16.50
2018-06-14T06:31:59.287Z,16.50
2018-06-14T06:34:28.543Z,16.30
2018-06-14T06:36:57.130Z,16.50
2018-06-14T06:39:25.919Z,16.70
2018-06-14T06:41:54.552Z,16.80
2018-06-14T06:44:23.078Z,17.00
2018-06-14T06:46:51.608Z,17.00
2018-06-14T06:49:20.184Z,17.00
2018-06-14T06:51:48.692Z,16.90
2018-06-14T06:54:17.198Z,17.00
2018-06-14T06:56:45.895Z,17.00
2018-06-14T06:59:14.393Z,17.10
2018-06-14T07:01:42.876Z,17.10
2018-06-14T07:04:11.522Z,17.10
2018-06-14T07:06:40.009Z,17.30
2018-06-14T07:09:09.928Z,17.20
2018-06-14T07:11:38.819Z,17.20
2018-06-14T07:14:07.488Z,17.40
2018-06-14T07:16:36.632Z,17.70
2018-06-14T07:19:05.125Z,17.70
2018-06-14T07:21:34.043Z,18.00
2018-06-14T07:24:02.551Z,18.00
2018-06-14T07:26:31.346Z,18.30
2018-06-14T07:29:00.061Z,18.00
2018-06-14T07:31:28.608Z,18.00
2018-06-14T07:33:57.417Z,17.90
2018-06-14T07:36:25.984Z,17.40
2018-06-14T07:38:54.438Z,17.60
2018-06-14T07:41:23.009Z,17.60
2018-06-14T07:43:51.607Z,17.90
2018-06-14T07:46:20.039Z,17.80
2018-06-14T07:48:48.556Z,17.70
2018-06-14T07:51:17.050Z,17.50
2018-06-14T07:53:45.492Z,17.60
2018-06-14T07:56:13.978Z,17.70
2018-06-14T07:58:42.454Z,17.60
2018-06-14T08:01:11.000Z,17.70
2018-06-14T08:03:39.485Z,18.10
2018-06-14T08:06:08.124Z,18.60
2018-06-14T08:08:36.606Z,19.30
2018-06-14T08:11:05.143Z,19.20
2018-06-14T08:13:34.981Z,18.80
2018-06-14T08:16:03.530Z,18.90
2018-06-14T08:18:32.023Z,19.10
2018-06-14T08:21:00.578Z,19.10
2018-06-14T08:23:29.064Z,18.90
2018-06-14T08:25:57.578Z,19.10
2018-06-14T08:28:26.127Z,19.10
2018-06-14T08:30:54.636Z,19.00
2018-06-14T08:33:23.199Z,19.00
2018-06-14T08:35:51.630Z,19.10
2018-06-14T08:38:20.151Z,18.90
2018-06-14T08:40:48.842Z,18.80
2018-06-14T08:43:17.742Z,18.70
2018-06-14T08:45:46.818Z,19.10
2018-06-14T08:48:15.288Z,20.20
2018-06-14T08:50:43.763Z,20.70
2018-06-14T08:53:12.270Z,21.10
2018-06-14T08:55:40.774Z,21.20
2018-06-14T08:58:09.260Z,21.70
2018-06-14T09:00:37.710Z,21.40
2018-06-14T09:03:06.292Z,21.40
2018-06-14T09:05:34.801Z,21.20
2018-06-14T09:08:03.330Z,21.30
2018-06-14T09:10:31.940Z,21.20
2018-06-14T09:13:00.425Z,21.50
2018-06-14T09:15:28.886Z,20.70
2018-06-14T09:17:57.324Z,21.80
2018-06-14T09:20:25.809Z,21.70
2018-06-14T09:22:54.323Z,21.90
2018-06-14T09:25:22.780Z,22.50
2018-06-14T09:27:51.282Z,21.80
2018-06-14T09:30:19.743Z,22.40
2018-06-14T09:32:48.230Z,22.30
2018-06-14T09:35:16.840Z,22.00
2018-06-14T09:37:45.322Z,22.00
2018-06-14T09:40:13.806Z,22.70
2018-06-14T09:42:42.387Z,23.00
2018-06-14T09:45:10.875Z,23.50
2018-06-14T09:47:39.374Z,24.20
2018-06-14T09:50:07.864Z,23.30
2018-06-14T09:52:36.505Z,23.90
2018-06-14T09:55:05.024Z,24.50
2018-06-14T09:57:33.578Z,25.00
2018-06-14T10:00:02.132Z,25.00
2018-06-14T10:04:58.849Z,25.30
2018-06-14T10:07:27.316Z,24.80
2018-06-14T10:09:55.794Z,24.90
2018-06-14T10:12:24.277Z,24.70
2018-06-14T10:14:52.774Z,24.50
2018-06-14T10:17:21.191Z,24.70
2018-06-14T10:19:49.673Z,24.90
2018-06-14T10:22:18.151Z,24.20
2018-06-14T10:24:46.625Z,24.50
2018-06-14T10:27:15.158Z,25.00
2018-06-14T10:29:43.666Z,25.70
2018-06-14T10:32:12.379Z,25.90
2018-06-14T10:34:41.019Z,25.70
2018-06-14T10:39:37.744Z,26.10
2018-06-14T10:42:06.193Z,26.70
2018-06-14T10:44:34.727Z,26.20
2018-06-14T10:47:03.254Z,26.00
2018-06-14T10:49:31.944Z,26.50
2018-06-14T10:52:00.530Z,26.80
2018-06-14T10:59:25.821Z,26.40
2018-06-14T11:01:54.352Z,26.30
2018-06-14T11:04:23.023Z,26.50
2018-06-14T11:06:51.651Z,26.50
2018-06-14T11:09:20.133Z,27.40
2018-06-14T11:11:48.655Z,27.30
2018-06-14T11:14:17.236Z,27.50
2018-06-14T11:16:46.027Z,26.60
2018-06-14T11:19:14.671Z,27.00
2018-06-14T11:21:43.253Z,27.30
2018-06-14T11:24:11.820Z,27.40
2018-06-14T11:26:40.404Z,27.60
2018-06-14T11:29:09.090Z,27.50
2018-06-14T11:31:37.728Z,28.00
2018-06-14T11:34:06.415Z,27.90
2018-06-14T11:36:35.045Z,27.80
2018-06-14T11:39:05.031Z,27.90
2018-06-14T11:41:33.668Z,27.80
2018-06-14T11:44:02.404Z,27.70
2018-06-14T11:46:31.037Z,28.00
2018-06-14T11:48:59.946Z,28.00
2018-06-14T11:51:28.549Z,28.10
2018-06-14T11:53:57.122Z,28.60
2018-06-14T11:56:25.631Z,28.10
2018-06-14T11:58:54.215Z,28.20
2018-06-14T12:01:22.822Z,27.10
2018-06-14T12:03:51.426Z,27.60
2018-06-14T12:06:20.069Z,27.30
2018-06-14T12:08:49.368Z,28.70
2018-06-14T12:11:18.235Z,28.20
2018-06-14T12:13:46.884Z,28.00
2018-06-14T12:16:15.472Z,28.00
2018-06-14T12:18:44.475Z,28.50
2018-06-14T12:21:13.104Z,28.90
2018-06-14T12:23:41.653Z,29.30
2018-06-14T12:26:10.213Z,29.20
2018-06-14T12:28:38.826Z,28.70
2018-06-14T12:31:07.356Z,28.20
2018-06-14T12:33:35.902Z,28.10
2018-06-14T12:36:04.553Z,28.80
2018-06-14T12:38:33.537Z,28.60
2018-06-14T12:41:02.148Z,29.30
2018-06-14T12:43:30.860Z,29.60
2018-06-14T12:45:59.440Z,29.50
2018-06-14T12:48:28.048Z,29.00
2018-06-14T12:50:57.008Z,29.00
2018-06-14T12:53:26.081Z,29.00
2018-06-14T12:55:54.712Z,28.90
2018-06-14T12:58:23.329Z,29.50
2018-06-14T13:00:51.971Z,29.80
2018-06-14T13:03:20.971Z,29.30
2018-06-14T13:05:50.377Z,28.40
2018-06-14T13:08:18.938Z,28.60
2018-06-14T13:10:47.509Z,29.20
2018-06-14T13:13:16.092Z,29.00
2018-06-14T13:15:44.951Z,28.30
2018-06-14T13:18:13.878Z,29.20
2018-06-14T13:20:42.685Z,28.60
2018-06-14T13:23:11.254Z,28.20
2018-06-14T13:25:39.935Z,28.80
2018-06-14T13:28:08.620Z,29.40
2018-06-14T13:30:38.584Z,29.20
2018-06-14T13:33:11.121Z,29.80
2018-06-14T13:35:40.323Z,29.60
2018-06-14T13:38:08.906Z,29.70
2018-06-14T13:40:38.302Z,29.60
2018-06-14T13:43:07.153Z,29.80
2018-06-14T13:45:35.973Z,29.10
2018-06-14T13:48:04.932Z,29.80
2018-06-14T13:50:33.567Z,29.60
2018-06-14T13:53:02.463Z,29.30
2018-06-14T13:55:31.084Z,29.50
2018-06-14T14:00:29.958Z,29.50
2018-06-14T14:02:58.577Z,29.40
2018-06-14T14:05:27.171Z,29.80
2018-06-14T14:07:55.874Z,30.10
2018-06-14T14:10:24.533Z,29.90
2018-06-14T14:12:53.316Z,29.90
2018-06-14T14:15:21.940Z,30.20
2018-06-14T14:17:50.637Z,30.40
2018-06-14T14:20:19.320Z,30.50
2018-06-14T14:22:47.909Z,30.90
2018-06-14T14:25:16.574Z,30.30
2018-06-14T14:27:45.268Z,29.50
2018-06-14T14:30:13.814Z,29.80
2018-06-14T14:32:42.423Z,29.90
2018-06-14T14:35:11.102Z,30.10
2018-06-14T14:37:39.781Z,30.80
2018-06-14T14:40:08.551Z,31.30
2018-06-14T14:42:37.148Z,30.80
2018-06-14T14:45:06.365Z,30.40
2018-06-14T14:47:35.047Z,30.30
2018-06-14T14:50:03.684Z,30.50
2018-06-14T14:52:32.989Z,30.30
2018-06-14T14:55:01.651Z,30.70
2018-06-14T14:57:31.117Z,30.90
2018-06-14T14:59:59.733Z,30.90
2018-06-14T15:02:28.326Z,30.90
2018-06-14T15:04:56.921Z,30.80
2018-06-14T15:07:26.382Z,30.40
2018-06-14T15:09:54.965Z,30.20
2018-06-14T15:12:23.549Z,30.00
2018-06-14T15:14:52.492Z,29.90
2018-06-14T15:17:21.114Z,30.40
2018-06-14T15:19:49.954Z,30.20
2018-06-14T15:22:18.676Z,30.10
2018-06-14T15:24:48.116Z,30.50
2018-06-14T15:27:17.041Z,30.00
2018-06-14T15:29:45.710Z,29.80
2018-06-14T15:32:15.061Z,29.40
2018-06-14T15:34:44.303Z,29.70
2018-06-14T15:37:12.913Z,29.70
2018-06-14T15:39:41.553Z,29.80
2018-06-14T15:42:10.291Z,29.10
2018-06-14T15:44:38.955Z,29.30
2018-06-14T15:47:07.556Z,29.40
2018-06-14T15:49:36.184Z,29.10
2018-06-14T15:52:05.304Z,29.50
2018-06-14T15:54:34.197Z,28.80
2018-06-14T15:57:02.894Z,28.50
2018-06-14T15:59:32.055Z,28.50
2018-06-14T16:02:00.644Z,28.50
2018-06-14T16:04:29.322Z,27.70
2018-06-14T16:06:57.991Z,27.70
2018-06-14T16:09:26.622Z,27.20
2018-06-14T16:11:55.479Z,27.10
2018-06-14T16:14:24.268Z,27.10
2018-06-14T16:16:52.833Z,26.70
2018-06-14T16:19:22.153Z,26.70
2018-06-14T16:21:50.742Z,26.70
2018-06-14T16:24:19.415Z,26.40
2018-06-14T16:26:48.242Z,26.50
2018-06-14T16:29:16.999Z,26.40
2018-06-14T16:31:45.602Z,26.00
2018-06-14T16:34:14.207Z,25.70
2018-06-14T16:36:42.802Z,25.20
2018-06-14T16:39:11.449Z,25.40
2018-06-14T16:41:40.035Z,25.40
2018-06-14T16:44:08.660Z,25.40
2018-06-14T16:46:37.314Z,25.10
2018-06-14T16:49:05.901Z,25.00
2018-06-14T16:51:34.520Z,25.00
2018-06-14T16:54:03.160Z,25.00
2018-06-14T16:56:31.829Z,24.90
2018-06-14T16:59:00.519Z,24.60
2018-06-14T17:01:29.491Z,24.50
2018-06-14T17:03:58.095Z,24.40
2018-06-14T17:06:26.737Z,24.40
2018-06-14T17:08:56.566Z,24.30
2018-06-14T17:11:25.133Z,24.30
2018-06-14T17:13:53.752Z,23.90
2018-06-14T17:16:22.368Z,23.90
2018-06-14T17:18:51.000Z,23.90
2018-06-14T17:21:19.581Z,23.70
2018-06-14T17:23:48.188Z,23.60
2018-06-14T17:26:16.831Z,23.50
2018-06-14T17:28:45.434Z,23.50
2018-06-14T17:31:14.015Z,23.50
2018-06-14T17:33:42.632Z,23.40
2018-06-14T17:36:11.231Z,23.30
2018-06-14T17:38:39.906Z,23.20
2018-06-14T17:41:08.758Z,23.10
2018-06-14T17:43:37.342Z,23.10
2018-06-14T17:46:05.963Z,23.00
2018-06-14T17:48:34.632Z,22.80
2018-06-14T17:51:03.269Z,22.80
2018-06-14T17:53:32.114Z,22.70
2018-06-14T17:56:01.349Z,22.70
2018-06-14T17:58:29.866Z,22.60
2018-06-14T18:00:59.176Z,22.50
2018-06-14T18:03:27.932Z,22.50
2018-06-14T18:05:56.619Z,22.30
2018-06-14T18:08:25.262Z,22.20
2018-06-14T18:10:53.880Z,22.10
2018-06-14T18:13:22.499Z,21.90
2018-06-14T18:15:51.558Z,21.80
2018-06-14T18:18:20.178Z,21.80
2018-06-14T18:20:48.794Z,21.80
2018-06-14T18:23:18.481Z,21.60
2018-06-14T18:25:47.455Z,21.40
2018-06-14T18:28:16.119Z,21.30
2018-06-14T18:30:45.130Z,21.20
2018-06-14T18:33:13.753Z,21.00
2018-06-14T18:35:42.339Z,20.90
2018-06-14T18:38:11.023Z,20.80
2018-06-14T18:40:39.683Z,20.70
2018-06-14T18:43:09.281Z,20.60
2018-06-14T18:45:38.233Z,20.50
2018-06-14T18:48:06.883Z,20.40
2018-06-14T18:50:35.372Z,20.30
2018-06-14T18:53:03.941Z,20.30
2018-06-14T18:55:32.871Z,20.10
2018-06-14T18:58:01.319Z,20.00
2018-06-14T19:00:29.774Z,20.00
2018-06-14T19:02:58.452Z,19.80
2018-06-14T19:05:27.063Z,19.70
2018-06-14T19:07:55.627Z,19.50
2018-06-14T19:10:24.124Z,19.40
2018-06-14T19:12:52.584Z,19.30
2018-06-14T19:15:21.070Z,19.20
2018-06-14T19:17:49.543Z,19.10
2018-06-14T19:20:18.067Z,18.90
2018-06-14T19:22:46.616Z,18.90
2018-06-14T19:25:15.768Z,18.70
2018-06-14T19:27:44.311Z,18.70
2018-06-14T19:30:12.887Z,18.50
2018-06-14T19:32:41.393Z,18.50
2018-06-14T19:35:09.954Z,18.30
2018-06-14T19:37:38.493Z,18.20
2018-06-14T19:40:07.191Z,18.10
2018-06-14T19:42:35.768Z,18.00
2018-06-14T19:45:05.003Z,18.00
2018-06-14T19:47:33.533Z,17.90
2018-06-14T19:50:02.050Z,17.80
2018-06-14T19:52:30.664Z,17.70
2018-06-14T19:54:59.264Z,17.60
2018-06-14T19:57:27.742Z,17.50
2018-06-14T19:59:56.382Z,17.50
2018-06-14T20:02:25.916Z,17.40
2018-06-14T20:04:54.466Z,17.30
2018-06-14T20:07:23.236Z,17.20
2018-06-14T20:09:52.610Z,17.10
2018-06-14T20:12:21.348Z,17.00
2018-06-14T20:14:49.952Z,16.90
2018-06-14T20:17:19.210Z,16.90
2018-06-14T20:19:47.833Z,16.80
2018-06-14T20:22:16.630Z,16.70
2018-06-14T20:24:45.654Z,16.60
2018-06-14T20:27:14.318Z,16.60
2018-06-14T20:29:43.264Z,16.40
2018-06-14T20:32:11.936Z,16.40
2018-06-14T20:34:40.625Z,16.30
2018-06-14T20:37:09.307Z,16.20
2018-06-14T20:39:38.030Z,16.10
2018-06-14T20:42:06.794Z,16.10
2018-06-14T20:44:35.429Z,16.00
2018-06-14T20:47:05.172Z,15.90
2018-06-14T20:49:35.926Z,15.90
2018-06-14T20:52:05.890Z,15.80
2018-06-14T20:54:35.587Z,15.70
2018-06-14T20:57:07.106Z,15.60
2018-06-14T20:59:36.158Z,15.50
2018-06-14T21:02:05.255Z,15.50
2018-06-14T21:04:34.065Z,15.40
2018-06-14T21:07:02.907Z,15.40
2018-06-14T21:09:31.498Z,15.30
2018-06-14T21:12:00.163Z,15.20
2018-06-14T21:14:29.274Z,15.20
2018-06-14T21:16:58.121Z,15.10
2018-06-14T21:19:26.846Z,15.10
2018-06-14T21:21:55.528Z,15.00
2018-06-14T21:24:24.608Z,14.90
2018-06-14T21:26:53.444Z,14.90
2018-06-14T21:29:22.170Z,14.90
2018-06-14T21:31:51.695Z,14.80
2018-06-14T21:34:20.300Z,14.70
2018-06-14T21:36:48.880Z,14.70
2018-06-14T21:39:17.488Z,14.60
2018-06-14T21:41:46.251Z,14.60
2018-06-14T21:44:14.953Z,14.50
2018-06-14T21:49:11.872Z,14.40
2018-06-14T21:51:40.532Z,14.40
2018-06-14T21:54:09.347Z,14.30
2018-06-14T21:56:37.907Z,14.20
2018-06-14T21:59:06.444Z,14.20
2018-06-14T22:01:35.225Z,14.10
2018-06-14T22:04:03.879Z,14.10
2018-06-14T22:06:32.462Z,14.00
2018-06-14T22:09:01.404Z,14.00
2018-06-14T22:11:30.015Z,14.00
2018-06-14T22:13:58.599Z,13.90
2018-06-14T22:16:27.231Z,13.90
2018-06-14T22:18:55.808Z,13.90
2018-06-14T22:21:24.484Z,13.80
2018-06-14T22:23:53.113Z,13.80
2018-06-14T22:26:21.721Z,13.70
2018-06-14T22:28:50.275Z,13.70
2018-06-14T22:31:18.970Z,13.70
2018-06-14T22:33:58.817Z,13.70
2018-06-14T22:36:27.441Z,13.70
2018-06-14T22:38:56.035Z,13.60
2018-06-14T22:41:25.028Z,13.60
2018-06-14T22:43:53.548Z,13.60
2018-06-14T22:46:23.100Z,13.60
2018-06-14T22:48:51.708Z,13.60
2018-06-14T22:51:21.310Z,13.60
2018-06-14T22:53:49.923Z,13.60
2018-06-14T22:56:18.756Z,13.60
2018-06-14T22:58:47.295Z,13.60
2018-06-14T23:01:48.850Z,13.50
2018-06-14T23:04:20.837Z,13.50
2018-06-14T23:06:49.400Z,13.50
2018-06-14T23:10:32.564Z,13.50
2018-06-14T23:13:01.185Z,13.50
2018-06-14T23:15:30.370Z,13.50
2018-06-14T23:17:59.296Z,13.50
2018-06-14T23:20:28.875Z,13.50
2018-06-14T23:22:58.244Z,13.50
2018-06-14T23:25:27.655Z,13.40
2018-06-14T23:27:56.265Z,13.50
2018-06-14T23:30:25.052Z,13.50
2018-06-14T23:32:53.605Z,13.50
2018-06-14T23:35:22.153Z,13.50
2018-06-14T23:37:50.696Z,13.50
2018-06-14T23:40:19.307Z,13.40
2018-06-14T23:42:48.106Z,13.40
2018-06-14T23:45:16.656Z,13.40
2018-06-14T23:47:45.186Z,13.40
2018-06-14T23:50:13.747Z,13.40
2018-06-14T23:55:10.728Z,13.40
2018-06-14T23:57:39.290Z,13.40
